Time;durP1;ratioP1;P1;durP2;ratioP2;P2;SDS_P1;SDS_P2;PMS_P1;PMS_P2;Temp;Humidity;BMP_temperature;BMP_pressure;BME280_temperature;BME280_humidity;BME280_pressure;Samples;Min_cycle;Max_cycle;Signal;HPM_P1;HPM_P2
2021/03/08 00:02:01;;;;;;;;;;;;;;;19.89;32.51;101139.72;5117541;28;1921;-55
2021/03/08 00:04:27;;;;;;;;;;;;;;;19.15;33.94;101132.09;5117892;28;727;-57
2021/03/08 00:06:52;;;;;;;;;;;;;;;19.48;33.68;101133.31;5117975;28;803;-56
2021/03/08 00:09:17;;;;;;;;;;;;;;;20.38;31.82;101138.75;5117556;28;883;-54
2021/03/08 00:11:43;;;;;;;;;;;;;;;20.22;32.07;101134.50;5117742;28;1016;-58
2021/03/08 00:14:08;;;;;;;;;;;;;;;20.03;32.29;101131.59;5117859;28;799;-55
2021/03/08 00:16:34;;;;;;;;;;;;;;;19.40;33.33;101133.91;5117378;28;826;-57
2021/03/08 00:18:59;;;;;;;;;;;;;;;19.25;34.05;101131.22;5117593;28;842;-58
2021/03/08 00:21:25;;;;;;;;;;;;;;;20.44;31.78;101125.72;5117606;28;1982;-60
2021/03/08 00:23:50;;;;;;;;;;;;;;;20.08;32.34;101124.09;5117590;28;925;-59
2021/03/08 00:26:15;;;;;;;;;;;;;;;20.14;32.08;101117.41;5117451;28;1008;-59
2021/03/08 00:28:41;;;;;;;;;;;;;;;19.45;33.38;101120.09;5117594;28;782;-59
2021/03/08 00:31:06;;;;;;;;;;;;;;;19.35;33.71;101117.41;5117525;28;838;-59
2021/03/08 00:33:32;;;;;;;;;;;;;;;20.37;31.69;101100.38;5117140;28;850;-59
2021/03/08 00:35:57;;;;;;;;;;;;;;;20.00;32.50;101106.22;5117470;28;767;-59
2021/03/08 00:38:32;;;;;;;;;;;;;;;20.04;32.24;101095.44;5117024;28;740;-58
2021/03/08 00:40:57;;;;;;;;;;;;;;;19.43;33.26;101108.53;5116857;28;1972;-58
2021/03/08 00:43:22;;;;;;;;;;;;;;;19.25;33.67;101106.41;5117127;28;806;-58
2021/03/08 00:45:48;;;;;;;;;;;;;;;20.27;32.06;101096.63;5117155;28;798;-58
2021/03/08 00:48:13;;;;;;;;;;;;;;;19.96;32.36;101098.81;5116989;28;754;-59
2021/03/08 00:50:42;;;;;;;;;;;;;;;20.13;31.98;101082.66;5116986;28;1221;-59
2021/03/08 00:53:15;;;;;;;;;;;;;;;19.48;33.14;101080.09;5115860;28;1343;-59
2021/03/08 00:55:44;;;;;;;;;;;;;;;19.11;34.08;101079.50;5117061;28;1000;-59
2021/03/08 00:58:10;;;;;;;;;;;;;;;20.08;32.23;101068.91;5116639;28;744;-59
2021/03/08 01:00:35;;;;;;;;;;;;;;;19.98;32.18;101060.72;5116938;28;1910;-57
2021/03/08 01:03:04;;;;;;;;;;;;;;;20.07;32.07;101052.63;5116698;28;755;-59
2021/03/08 01:05:31;;;;;;;;;;;;;;;19.55;33.24;101050.25;5115842;28;1117;-58
2021/03/08 01:08:36;;;;;;;;;;;;;;;19.10;34.21;101055.78;5115915;28;1259;-59
2021/03/08 01:11:03;;;;;;;;;;;;;;;20.33;31.89;101050.44;5116566;28;973;-58
2021/03/08 01:13:34;;;;;;;;;;;;;;;19.95;32.35;101030.91;5115650;28;1255;-58
2021/03/08 01:16:00;;;;;;;;;;;;;;;19.96;32.40;101036.16;5116998;28;764;-58
2021/03/08 01:18:25;;;;;;;;;;;;;;;19.42;33.52;101035.19;5116930;28;826;-57
2021/03/08 01:20:51;;;;;;;;;;;;;;;19.45;33.29;101039.31;5116680;28;1982;-57
2021/03/08 01:23:16;;;;;;;;;;;;;;;20.39;31.72;101029.09;5116717;28;775;-58
2021/03/08 01:25:42;;;;;;;;;;;;;;;20.01;32.47;101021.50;5116421;28;831;-58
2021/03/08 01:28:07;;;;;;;;;;;;;;;19.98;32.40;101022.06;5116950;28;846;-58
2021/03/08 01:30:34;;;;;;;;;;;;;;;19.42;33.29;101017.78;5116446;28;827;-58
2021/03/08 01:33:00;;;;;;;;;;;;;;;19.36;33.82;101018.97;5116598;28;743;-58
2021/03/08 01:35:25;;;;;;;;;;;;;;;20.24;32.11;101011.56;5116910;28;802;-58
2021/03/08 01:41:25;;;;;;;;;;;;;;;19.93;32.49;101011.06;5116131;28;1917;-57
2021/03/08 01:43:51;;;;;;;;;;;;;;;19.26;33.78;101008.81;5116384;28;835;-57
2021/03/08 01:46:16;;;;;;;;;;;;;;;19.43;33.42;101014.78;5116669;28;800;-57
2021/03/08 01:48:42;;;;;;;;;;;;;;;20.39;31.63;101007.81;5116834;28;798;-58
2021/03/08 01:51:07;;;;;;;;;;;;;;;20.02;32.20;101023.16;5116648;28;1062;-57
2021/03/08 01:53:34;;;;;;;;;;;;;;;19.95;32.29;101009.69;5116208;28;818;-58
2021/03/08 01:56:00;;;;;;;;;;;;;;;19.23;33.44;101014.91;5116385;28;953;-57
2021/03/08 01:58:25;;;;;;;;;;;;;;;19.29;33.67;101016.50;5116535;28;799;-57
2021/03/08 02:00:51;;;;;;;;;;;;;;;20.21;31.91;101014.94;5116136;28;1984;-57
2021/03/08 02:03:16;;;;;;;;;;;;;;;19.93;32.48;101006.38;5116138;28;831;-55
2021/03/08 02:05:42;;;;;;;;;;;;;;;20.03;32.21;101005.44;5116477;28;739;-57
2021/03/08 02:08:45;;;;;;;;;;;;;;;19.52;32.91;101001.19;5117627;28;743;-57
2021/03/08 02:11:10;;;;;;;;;;;;;;;19.46;33.16;100997.66;5120132;28;1009;-55
2021/03/08 02:13:42;;;;;;;;;;;;;;;20.41;31.63;100999.25;5120174;28;755;-58
2021/03/08 02:16:17;;;;;;;;;;;;;;;20.02;32.31;100989.19;5119630;28;835;-58
2021/03/08 02:18:45;;;;;;;;;;;;;;;19.93;32.25;100997.28;5118960;28;763;-57
2021/03/08 02:21:29;;;;;;;;;;;;;;;19.30;33.34;100994.16;5118754;28;1898;-57
2021/03/08 02:23:54;;;;;;;;;;;;;;;19.52;33.13;100983.81;5119476;28;740;-55
2021/03/08 02:26:38;;;;;;;;;;;;;;;20.47;31.38;100985.09;5119685;28;945;-57
2021/03/08 02:29:09;;;;;;;;;;;;;;;19.86;32.61;100983.00;5119911;28;763;-57
2021/03/08 02:31:35;;;;;;;;;;;;;;;19.83;32.41;100978.88;5119473;28;739;-56
2021/03/08 02:34:05;;;;;;;;;;;;;;;19.29;33.45;100980.69;5118686;28;811;-57
2021/03/08 02:36:32;;;;;;;;;;;;;;;19.74;32.90;100972.31;5119626;28;771;-56
2021/03/08 02:38:59;;;;;;;;;;;;;;;20.48;31.56;100972.94;5118474;28;850;-58
2021/03/08 02:41:25;;;;;;;;;;;;;;;19.98;32.22;100964.13;5119292;28;1913;-57
2021/03/08 02:43:54;;;;;;;;;;;;;;;19.94;32.22;100963.88;5119399;28;735;-57
2021/03/08 02:46:21;;;;;;;;;;;;;;;19.36;33.29;100961.88;5118158;28;751;-57
2021/03/08 02:48:46;;;;;;;;;;;;;;;19.50;33.26;100964.78;5119484;28;886;-58
2021/03/08 02:51:12;;;;;;;;;;;;;;;20.43;31.44;100970.22;5119146;28;1177;-57
2021/03/08 02:53:39;;;;;;;;;;;;;;;20.15;32.00;100964.47;5117910;28;803;-57
2021/03/08 02:56:05;;;;;;;;;;;;;;;19.96;32.32;100960.81;5118013;28;974;-58
2021/03/08 02:58:32;;;;;;;;;;;;;;;19.47;33.33;100965.38;5119205;28;814;-58
2021/03/08 03:00:57;;;;;;;;;;;;;;;19.13;33.74;100967.00;5117804;28;1914;-57
2021/03/08 03:03:23;;;;;;;;;;;;;;;20.26;31.74;100973.47;5119452;28;766;-58
2021/03/08 03:05:48;;;;;;;;;;;;;;;20.26;31.63;100975.38;5118988;28;747;-54
2021/03/08 03:11:35;;;;;;;;;;;;;;;19.43;33.38;100969.81;5117929;28;1009;-57
2021/03/08 03:14:01;;;;;;;;;;;;;;;19.43;33.52;100964.31;5118894;28;874;-57
2021/03/08 03:16:26;;;;;;;;;;;;;;;20.34;31.51;100971.97;5117765;28;771;-58
2021/03/08 03:18:52;;;;;;;;;;;;;;;19.91;32.24;100969.13;5117423;28;802;-57
2021/03/08 03:21:18;;;;;;;;;;;;;;;19.93;32.22;100975.19;5118415;28;1970;-56
2021/03/08 03:23:43;;;;;;;;;;;;;;;19.48;33.15;100973.34;5116987;28;931;-57
2021/03/08 03:26:09;;;;;;;;;;;;;;;19.47;33.33;100970.88;5117180;28;962;-58
2021/03/08 03:28:34;;;;;;;;;;;;;;;20.24;31.84;100963.81;5118657;28;798;-57
2021/03/08 03:31:00;;;;;;;;;;;;;;;20.22;31.59;100975.16;5118764;28;767;-57
2021/03/08 03:33:27;;;;;;;;;;;;;;;20.05;32.37;100970.09;5118584;28;807;-56
2021/03/08 03:35:52;;;;;;;;;;;;;;;19.66;32.73;100968.25;5118989;28;835;-56
2021/03/08 03:41:25;;;;;;;;;;;;;;;20.26;31.72;100964.34;5117697;28;1913;-57
2021/03/08 03:43:51;;;;;;;;;;;;;;;20.24;31.74;100966.59;5118194;28;786;-54
2021/03/08 03:46:16;;;;;;;;;;;;;;;20.09;32.26;100965.66;5118433;28;850;-56
2021/03/08 03:48:41;;;;;;;;;;;;;;;19.72;32.64;100964.31;5118263;28;751;-57
2021/03/08 03:51:07;;;;;;;;;;;;;;;19.15;34.02;100959.28;5118140;28;1158;-58
2021/03/08 03:53:33;;;;;;;;;;;;;;;20.15;31.97;100958.94;5118116;28;811;-57
2021/03/08 03:55:58;;;;;;;;;;;;;;;20.09;32.13;100954.59;5117592;28;904;-58
2021/03/08 03:58:24;;;;;;;;;;;;;;;19.88;32.39;100958.69;5117027;28;827;-57
2021/03/08 04:01:08;;;;;;;;;;;;;;;19.60;32.85;100966.63;5117602;28;1932;-57
2021/03/08 04:03:42;;;;;;;;;;;;;;;19.41;33.38;100964.59;5117922;28;759;-57
2021/03/08 04:06:07;;;;;;;;;;;;;;;20.42;31.58;100968.56;5117694;28;778;-57
2021/03/08 04:09:07;;;;;;;;;;;;;;;20.02;32.12;100958.81;5116995;28;768;-57
2021/03/08 04:11:33;;;;;;;;;;;;;;;20.00;32.08;100959.91;5117418;28;1071;-57
2021/03/08 04:14:00;;;;;;;;;;;;;;;19.21;33.50;100962.81;5117845;28;526;-55
2021/03/08 04:16:25;;;;;;;;;;;;;;;19.64;33.13;100964.94;5116147;28;700;-63
2021/03/08 04:18:51;;;;;;;;;;;;;;;20.51;31.27;100963.22;5116178;28;767;-56
2021/03/08 04:21:16;;;;;;;;;;;;;;;20.02;32.38;100959.66;5117610;28;1981;-56
2021/03/08 04:23:42;;;;;;;;;;;;;;;19.95;32.18;100964.69;5116200;28;779;-57
2021/03/08 04:26:07;;;;;;;;;;;;;;;19.13;33.87;100961.50;5116300;28;1013;-57
2021/03/08 04:28:33;;;;;;;;;;;;;;;19.35;33.59;100960.25;5115720;28;935;-50
2021/03/08 04:30:58;;;;;;;;;;;;;;;20.36;31.83;100955.94;5116711;28;845;-57
2021/03/08 04:33:24;;;;;;;;;;;;;;;19.94;32.41;100957.53;5115924;28;850;-62
2021/03/08 04:35:49;;;;;;;;;;;;;;;20.05;32.15;100959.06;5117268;28;817;-53
2021/03/08 04:38:33;;;;;;;;;;;;;;;19.49;33.35;100950.19;5115806;28;736;-57
2021/03/08 04:41:01;;;;;;;;;;;;;;;19.41;33.32;100953.56;5117023;28;1981;-50
2021/03/08 04:43:27;;;;;;;;;;;;;;;20.38;31.63;100947.38;5115482;28;991;-49
2021/03/08 04:45:53;;;;;;;;;;;;;;;20.10;32.12;100947.13;5116667;28;762;-60
2021/03/08 04:48:19;;;;;;;;;;;;;;;20.14;31.84;100951.75;5117156;28;878;-57
2021/03/08 04:50:44;;;;;;;;;;;;;;;19.50;33.15;100948.25;5115681;28;1118;-56
2021/03/08 04:53:09;;;;;;;;;;;;;;;19.48;33.15;100951.28;5115726;28;791;-58
2021/03/08 04:55:35;;;;;;;;;;;;;;;20.26;31.71;100950.53;5123142;27;1447;-58
2021/03/08 04:58:00;;;;;;;;;;;;;;;20.02;32.16;100947.78;5115688;28;768;-58
2021/03/08 05:00:26;;;;;;;;;;;;;;;20.07;32.37;100956.81;5134057;27;838;-62
2021/03/08 05:02:53;;;;;;;;;;;;;;;19.43;33.45;100951.34;5118545;28;1893;-56
2021/03/08 05:05:20;;;;;;;;;;;;;;;19.11;34.04;100947.19;5116778;28;842;-50
2021/03/08 05:07:45;;;;;;;;;;;;;;;20.16;31.96;100938.50;5114807;28;906;-58
2021/03/08 05:10:18;;;;;;;;;;;;;;;20.20;31.77;100946.19;5115804;28;755;-57
2021/03/08 05:12:43;;;;;;;;;;;;;;;20.10;32.02;100955.41;5114871;28;950;-52
2021/03/08 05:15:09;;;;;;;;;;;;;;;19.52;32.98;100951.53;5116943;28;806;-50
2021/03/08 05:17:35;;;;;;;;;;;;;;;19.27;33.82;100956.16;5114822;28;967;-57
2021/03/08 05:20:00;;;;;;;;;;;;;;;20.30;31.65;100959.88;5115245;28;903;-55
2021/03/08 05:22:26;;;;;;;;;;;;;;;20.01;32.12;100958.00;5115099;28;1901;-57
2021/03/08 05:24:51;;;;;;;;;;;;;;;20.00;32.19;100967.38;5117229;28;783;-58
2021/03/08 05:27:17;;;;;;;;;;;;;;;19.43;33.43;100961.53;5115393;28;1010;-54
2021/03/08 05:29:43;;;;;;;;;;;;;;;19.19;33.86;100966.97;5115532;28;763;-53
2021/03/08 05:32:16;;;;;;;;;;;;;;;19.88;32.58;100964.19;5116694;28;786;-61
2021/03/08 05:34:44;;;;;;;;;;;;;;;20.25;31.73;100962.72;5109104;28;772;-50
2021/03/08 05:37:10;;;;;;;;;;;;;;;19.85;32.39;100962.84;5096233;28;841;-58
2021/03/08 05:39:35;;;;;;;;;;;;;;;19.62;32.83;100967.19;5096317;28;847;-56
2021/03/08 05:42:03;;;;;;;;;;;;;;;19.09;34.04;100963.16;5106597;28;1970;-57
2021/03/08 05:44:31;;;;;;;;;;;;;;;19.94;32.33;100954.78;5120421;28;1014;-56
2021/03/08 05:46:56;;;;;;;;;;;;;;;20.59;31.19;100957.03;5119753;28;755;-50
2021/03/08 05:49:31;;;;;;;;;;;;;;;21.00;30.40;100962.03;5118979;28;855;-58
2021/03/08 05:52:17;;;;;;;;;;;;;;;20.32;31.88;100958.47;5120402;28;794;-58
2021/03/08 05:54:43;;;;;;;;;;;;;;;19.95;32.34;100956.41;5119630;28;812;-57
2021/03/08 05:57:11;;;;;;;;;;;;;;;19.28;33.43;100962.50;5133258;27;997;-56
2021/03/08 05:59:55;;;;;;;;;;;;;;;19.40;33.32;100962.94;5141128;27;802;-60
2021/03/08 06:02:39;;;;;;;;;;;;;;;20.43;31.69;100963.88;5140757;27;1901;-58
2021/03/08 06:05:23;;;;;;;;;;;;;;;20.05;32.19;100958.22;5140800;27;758;-57
2021/03/08 06:08:04;;;;;;;;;;;;;;;19.99;32.16;100957.47;5141049;27;806;-57
2021/03/08 06:11:08;;;;;;;;;;;;;;;19.22;33.64;100958.13;5140551;27;949;-57
2021/03/08 06:13:35;;;;;;;;;;;;;;;19.99;32.36;100962.97;5140703;27;779;-58
2021/03/08 06:16:00;;;;;;;;;;;;;;;20.39;31.35;100971.91;5139457;27;903;-57
2021/03/08 06:18:27;;;;;;;;;;;;;;;20.00;32.23;100972.91;5129180;27;1207;-58
2021/03/08 06:20:55;;;;;;;;;;;;;;;19.97;31.98;100981.78;5113182;28;1961;-58
2021/03/08 06:23:21;;;;;;;;;;;;;;;19.39;33.36;100964.06;5118074;28;890;-57
2021/03/08 06:25:47;;;;;;;;;;;;;;;19.00;34.09;100967.66;5120061;27;950;-58
2021/03/08 06:28:12;;;;;;;;;;;;;;;20.02;32.37;100962.41;5140368;27;755;-58
2021/03/08 06:30:37;;;;;;;;;;;;;;;20.30;31.64;100970.91;5117980;27;1013;-57
2021/03/08 06:33:03;;;;;;;;;;;;;;;20.00;32.20;100970.16;5119939;28;735;-47
2021/03/08 06:35:28;;;;;;;;;;;;;;;19.85;32.53;100964.78;5119752;28;805;-53
2021/03/08 06:37:54;;;;;;;;;;;;;;;18.97;34.09;100962.69;5119990;28;748;-58
2021/03/08 06:40:19;;;;;;;;;;;;;;;20.10;32.11;100960.94;5118596;28;866;-60
2021/03/08 06:42:45;;;;;;;;;;;;;;;20.18;31.64;100958.34;5137597;27;1974;-56
2021/03/08 06:45:11;;;;;;;;;;;;;;;20.00;32.22;100956.34;5138987;27;822;-58
2021/03/08 06:47:36;;;;;;;;;;;;;;;19.87;32.54;100948.78;5140273;27;821;-60
2021/03/08 06:50:02;;;;;;;;;;;;;;;19.24;33.43;100944.88;5139612;27;1026;-62
2021/03/08 06:52:55;;;;;;;;;;;;;;;19.91;32.27;100958.94;5139870;27;1033;-47
2021/03/08 06:55:20;;;;;;;;;;;;;;;20.24;31.77;100959.09;5135692;27;1173;-60
2021/03/08 06:57:46;;;;;;;;;;;;;;;20.03;31.99;100955.75;5137389;27;1037;-58
2021/03/08 07:00:13;;;;;;;;;;;;;;;19.76;32.62;100954.34;5140036;27;813;-46
2021/03/08 07:02:42;;;;;;;;;;;;;;;19.05;33.58;100951.06;5139477;27;1979;-56
2021/03/08 07:05:08;;;;;;;;;;;;;;;20.16;32.03;100943.19;5139063;27;541;-62
2021/03/08 07:07:52;;;;;;;;;;;;;;;20.28;31.57;100940.03;5138041;27;804;-58
2021/03/08 07:10:30;;;;;;;;;;;;;;;20.12;31.75;100939.41;5138196;27;1358;-55
2021/03/08 07:12:56;;;;;;;;;;;;;;;19.63;32.74;100944.81;5129319;27;1408;-55
2021/03/08 07:15:22;;;;;;;;;;;;;;;19.36;33.51;100942.56;5117261;28;803;-57
2021/03/08 07:17:47;;;;;;;;;;;;;;;20.37;31.69;100946.56;5118944;28;782;-57
2021/03/08 07:20:15;;;;;;;;;;;;;;;20.25;31.65;100938.66;5118306;28;767;-55
2021/03/08 07:22:44;;;;;;;;;;;;;;;20.07;32.25;100937.50;5119918;27;1913;-58
2021/03/08 07:25:23;;;;;;;;;;;;;;;19.83;32.59;100934.72;5121179;27;794;-61
2021/03/08 07:27:50;;;;;;;;;;;;;;;19.13;33.69;100933.94;5132723;27;954;-60
2021/03/08 07:30:16;;;;;;;;;;;;;;;20.20;31.80;100932.38;5117232;28;830;-54
2021/03/08 07:32:54;;;;;;;;;;;;;;;20.32;31.41;100935.56;5118121;28;771;-62
2021/03/08 07:35:38;;;;;;;;;;;;;;;20.03;32.32;100936.44;5118123;28;786;-59
2021/03/08 07:38:04;;;;;;;;;;;;;;;19.66;32.79;100930.44;5134379;27;786;-52
2021/03/08 07:40:29;;;;;;;;;;;;;;;19.26;33.52;100931.63;5138531;27;859;-56
2021/03/08 07:42:55;;;;;;;;;;;;;;;20.31;31.65;100923.72;5118486;27;2044;-58
2021/03/08 07:45:23;;;;;;;;;;;;;;;20.33;31.54;100926.16;5118234;28;787;-50
2021/03/08 07:48:06;;;;;;;;;;;;;;;20.05;32.10;100923.19;5116704;28;751;-54
2021/03/08 07:50:32;;;;;;;;;;;;;;;19.84;32.53;100925.34;5117971;28;1016;-56
2021/03/08 07:52:57;;;;;;;;;;;;;;;19.19;33.85;100923.69;5117951;28;779;-57
2021/03/08 07:55:35;;;;;;;;;;;;;;;19.91;32.42;100924.97;5117405;27;839;-57
2021/03/08 07:58:01;;;;;;;;;;;;;;;20.49;31.30;100929.53;5111485;28;1177;-57
2021/03/08 08:00:28;;;;;;;;;;;;;;;20.03;32.32;100925.41;5117897;28;970;-59
2021/03/08 08:02:53;;;;;;;;;;;;;;;19.94;32.17;100933.50;5131395;27;1979;-54
2021/03/08 08:05:19;;;;;;;;;;;;;;;19.19;33.62;100917.34;5138245;27;858;-50
2021/03/08 08:07:44;;;;;;;;;;;;;;;19.54;33.20;100918.97;5138181;27;763;-50
2021/03/08 08:10:10;;;;;;;;;;;;;;;20.47;31.36;100921.56;5127164;27;795;-53
2021/03/08 08:12:35;;;;;;;;;;;;;;;20.19;31.99;100917.78;5115909;28;1245;-51
2021/03/08 08:15:01;;;;;;;;;;;;;;;20.06;32.06;100916.53;5116333;28;786;-58
2021/03/08 08:17:27;;;;;;;;;;;;;;;19.37;33.48;100922.16;5117654;28;759;-57
2021/03/08 08:19:53;;;;;;;;;;;;;;;19.55;33.11;100917.06;5132145;27;810;-61
2021/03/08 08:22:22;;;;;;;;;;;;;;;20.55;31.49;100919.25;5120284;27;1921;-61
2021/03/08 08:24:47;;;;;;;;;;;;;;;20.21;31.87;100912.75;5115929;28;799;-49
2021/03/08 08:27:15;;;;;;;;;;;;;;;20.20;31.74;100915.81;5115410;28;962;-57
2021/03/08 08:29:41;;;;;;;;;;;;;;;19.58;32.92;100910.94;5108886;28;1237;-58
2021/03/08 08:32:07;;;;;;;;;;;;;;;19.19;33.56;100909.91;5118117;27;1039;-57
2021/03/08 08:34:39;;;;;;;;;;;;;;;20.07;32.29;100900.81;5137143;27;758;-58
2021/03/08 08:37:17;;;;;;;;;;;;;;;20.50;31.17;100901.63;5126866;27;1069;-59
2021/03/08 08:39:51;;;;;;;;;;;;;;;20.26;31.87;100895.31;5116675;28;790;-59
2021/03/08 08:42:21;;;;;;;;;;;;;;;19.75;32.84;100894.75;5118591;27;1949;-56
2021/03/08 08:44:49;;;;;;;;;;;;;;;19.18;33.69;100883.47;5116383;28;794;-54
2021/03/08 08:47:16;;;;;;;;;;;;;;;19.90;32.54;100880.00;5116586;28;862;-54
2021/03/08 08:49:43;;;;;;;;;;;;;;;20.53;31.07;100880.88;5116587;28;1062;-54
2021/03/08 08:52:09;;;;;;;;;;;;;;;20.12;32.18;100875.91;5116574;28;771;-57
2021/03/08 08:54:34;;;;;;;;;;;;;;;20.02;32.34;100876.84;5116851;28;775;-56
2021/03/08 08:57:09;;;;;;;;;;;;;;;19.38;33.41;100868.66;5128413;27;957;-57
2021/03/08 08:59:36;;;;;;;;;;;;;;;19.67;33.17;100865.88;5125465;27;1189;-57
2021/03/08 09:02:12;;;;;;;;;;;;;;;20.65;31.12;100866.59;5116026;28;1921;-57
2021/03/08 09:04:37;;;;;;;;;;;;;;;20.19;31.75;100857.03;5116331;28;807;-57
2021/03/08 09:07:16;;;;;;;;;;;;;;;20.22;31.92;100864.72;5116290;28;751;-58
2021/03/08 09:09:41;;;;;;;;;;;;;;;19.53;33.20;100869.63;5116290;28;767;-58
2021/03/08 09:12:07;;;;;;;;;;;;;;;19.11;33.77;100858.97;5115754;28;969;-57
2021/03/08 09:14:34;;;;;;;;;;;;;;;20.25;32.12;100863.31;5129296;28;1458;-58
2021/03/08 09:17:14;;;;;;;;;;;;;;;20.30;31.70;100850.25;5128982;28;1437;-58
2021/03/08 09:19:40;;;;;;;;;;;;;;;20.31;31.89;100848.31;5120580;28;1100;-59
2021/03/08 09:22:25;;;;;;;;;;;;;;;19.86;32.40;100847.78;5113396;28;2028;-60
2021/03/08 09:24:51;;;;;;;;;;;;;;;19.43;33.48;100845.72;5115888;28;779;-58
2021/03/08 09:27:23;;;;;;;;;;;;;;;19.22;33.94;100850.63;5115995;28;969;-59
2021/03/08 09:29:48;;;;;;;;;;;;;;;19.24;33.57;100840.13;5116296;28;814;-61
2021/03/08 09:32:14;;;;;;;;;;;;;;;19.60;33.12;100842.50;5116030;28;732;-61
2021/03/08 09:34:40;;;;;;;;;;;;;;;19.68;32.86;100844.63;5109506;28;1117;-55
2021/03/08 09:37:06;;;;;;;;;;;;;;;19.95;32.41;100837.72;5116212;28;901;-62
2021/03/08 09:39:31;;;;;;;;;;;;;;;19.54;32.87;100832.66;5116422;28;790;-58
2021/03/08 09:41:57;;;;;;;;;;;;;;;19.34;33.31;100823.47;5112014;28;2032;-60
2021/03/08 09:44:22;;;;;;;;;;;;;;;19.29;33.24;100820.75;5112904;28;1422;-56
2021/03/08 09:46:54;;;;;;;;;;;;;;;19.40;33.30;100822.31;5131817;27;822;-54
2021/03/08 09:49:20;;;;;;;;;;;;;;;19.67;32.86;100820.94;5124391;28;814;-56
2021/03/08 09:51:45;;;;;;;;;;;;;;;19.70;32.74;100825.84;5135158;28;1081;-51
2021/03/08 09:54:11;;;;;;;;;;;;;;;19.66;32.79;100827.56;5119740;28;1018;-57
2021/03/08 09:56:39;;;;;;;;;;;;;;;19.70;32.80;100833.28;5124278;28;961;-56
2021/03/08 09:59:08;;;;;;;;;;;;;;;19.66;32.90;100824.81;5136543;27;794;-57
2021/03/08 10:01:33;;;;;;;;;;;;;;;19.76;32.69;100826.63;5135992;28;1988;-56
2021/03/08 10:04:05;;;;;;;;;;;;;;;19.80;32.46;100820.25;5136653;28;842;-53
2021/03/08 10:06:32;;;;;;;;;;;;;;;19.90;32.38;100824.00;5129204;28;1493;-54
2021/03/08 10:09:34;;;;;;;;;;;;;;;19.92;32.37;100816.25;5115498;28;811;-52
2021/03/08 10:12:32;;;;;;;;;;;;;;;19.98;32.00;100815.06;5115964;28;748;-55
2021/03/08 10:15:00;;;;;;;;;;;;;;;19.91;32.52;100817.34;5129257;28;1572;-55
2021/03/08 10:17:26;;;;;;;;;;;;;;;19.99;32.04;100811.16;5095123;28;731;-56
2021/03/08 10:19:58;;;;;;;;;;;;;;;19.89;32.47;100816.84;5095360;28;726;-54
2021/03/08 10:22:36;;;;;;;;;;;;;;;19.92;32.42;100811.56;5112438;28;1984;-53
2021/03/08 10:25:17;;;;;;;;;;;;;;;19.85;32.46;100800.03;5115790;28;885;-57
2021/03/08 10:27:42;;;;;;;;;;;;;;;19.77;32.46;100795.97;5116029;28;993;-46
2021/03/08 10:30:11;;;;;;;;;;;;;;;20.00;32.46;100799.84;5115590;28;947;-45
2021/03/08 10:32:37;;;;;;;;;;;;;;;19.91;32.46;100796.13;5117864;28;1074;-47
2021/03/08 10:35:02;;;;;;;;;;;;;;;20.08;31.91;100787.31;5133117;27;1487;-45
2021/03/08 10:37:27;;;;;;;;;;;;;;;20.04;32.12;100789.03;5119827;27;1474;-45
2021/03/08 10:39:53;;;;;;;;;;;;;;;20.12;32.18;100793.91;5126999;27;1463;-45
2021/03/08 10:42:19;;;;;;;;;;;;;;;19.97;32.46;100783.06;5120262;27;1917;-50
2021/03/08 10:44:44;;;;;;;;;;;;;;;19.88;32.56;100777.41;5119515;28;863;-50
2021/03/08 10:47:13;;;;;;;;;;;;;;;20.04;32.25;100775.25;5116463;27;1466;-46
2021/03/08 10:50:08;;;;;;;;;;;;;;;19.75;32.62;100781.63;5126875;27;1387;-59
2021/03/08 10:52:34;;;;;;;;;;;;;;;19.90;32.44;100766.88;5114075;27;1268;-56
2021/03/08 10:54:59;;;;;;;;;;;;;;;19.96;32.48;100754.66;5118761;28;468;-45
2021/03/08 10:57:26;;;;;;;;;;;;;;;19.94;32.21;100740.31;5119057;28;965;-47
2021/03/08 10:59:53;;;;;;;;;;;;;;;20.04;32.20;100736.59;5118742;28;815;-46
2021/03/08 11:02:19;;;;;;;;;;;;;;;20.08;31.99;100732.13;5118533;28;1988;-45
2021/03/08 11:04:45;;;;;;;;;;;;;;;20.07;31.93;100736.00;5118987;28;791;-55
2021/03/08 11:07:13;;;;;;;;;;;;;;;20.15;32.01;100726.22;5117487;28;763;-58
2021/03/08 11:10:03;;;;;;;;;;;;;;;20.10;32.13;100718.00;5118641;28;751;-54
2021/03/08 11:12:39;;;;;;;;;;;;;;;20.05;32.11;100718.91;5118521;28;1008;-57
2021/03/08 11:15:05;;;;;;;;;;;;;;;20.07;32.13;100713.09;5118557;28;724;-57
2021/03/08 11:17:30;;;;;;;;;;;;;;;20.11;32.09;100709.44;5118751;28;827;-51
2021/03/08 11:20:09;;;;;;;;;;;;;;;20.13;31.95;100707.22;5118905;28;771;-48
2021/03/08 11:22:53;;;;;;;;;;;;;;;20.14;31.94;100703.31;5118229;28;1980;-46
2021/03/08 11:25:26;;;;;;;;;;;;;;;20.17;31.90;100708.25;5118631;28;1043;-57
2021/03/08 11:27:51;;;;;;;;;;;;;;;20.13;32.01;100695.31;5116507;28;1183;-46
2021/03/08 11:30:17;;;;;;;;;;;;;;;20.17;31.67;100697.22;5117059;28;802;-48
2021/03/08 11:32:43;;;;;;;;;;;;;;;20.24;31.60;100696.00;5114212;28;1240;-49
2021/03/08 11:35:18;;;;;;;;;;;;;;;20.24;31.84;100693.22;5116128;28;839;-55
2021/03/08 11:37:47;;;;;;;;;;;;;;;20.12;31.67;100683.47;5117853;28;806;-55
2021/03/08 11:40:14;;;;;;;;;;;;;;;20.12;31.71;100682.66;5116124;28;901;-53
2021/03/08 11:42:39;;;;;;;;;;;;;;;20.18;31.77;100668.47;5116070;28;1929;-53
2021/03/08 11:45:05;;;;;;;;;;;;;;;20.18;31.73;100671.22;5114606;28;1267;-55
2021/03/08 11:47:30;;;;;;;;;;;;;;;20.14;31.71;100658.31;5111441;28;842;-51
2021/03/08 11:49:58;;;;;;;;;;;;;;;19.98;32.02;100666.03;5117571;28;1170;-58
2021/03/08 11:52:24;;;;;;;;;;;;;;;19.87;32.14;100656.28;5117668;28;835;-58
2021/03/08 11:54:49;;;;;;;;;;;;;;;19.98;32.20;100646.72;5117304;28;823;-59
2021/03/08 11:57:15;;;;;;;;;;;;;;;19.73;32.58;100647.91;5117440;28;989;-58
2021/03/08 11:59:40;;;;;;;;;;;;;;;19.47;32.71;100646.31;5117391;28;811;-59
2021/03/08 12:02:06;;;;;;;;;;;;;;;19.48;33.02;100628.63;5117095;28;1929;-59
2021/03/08 12:04:31;;;;;;;;;;;;;;;19.71;32.53;100641.84;5119187;27;1591;-59
2021/03/08 12:06:57;;;;;;;;;;;;;;;19.96;32.04;100644.25;5122946;27;1347;-58
2021/03/08 12:09:56;;;;;;;;;;;;;;;20.09;32.00;100641.84;5126433;27;1588;-61
2021/03/08 12:12:26;;;;;;;;;;;;;;;20.13;31.64;100634.59;5120625;27;1177;-59
2021/03/08 12:14:51;;;;;;;;;;;;;;;20.27;31.57;100624.44;5124055;27;1498;-54
2021/03/08 12:17:16;;;;;;;;;;;;;;;20.28;31.67;100628.00;5136942;27;838;-51
2021/03/08 12:19:42;;;;;;;;;;;;;;;20.29;31.27;100622.19;5117274;28;851;-58
2021/03/08 12:22:07;;;;;;;;;;;;;;;20.37;31.55;100622.59;5116708;28;1913;-60
2021/03/08 12:24:33;;;;;;;;;;;;;;;20.41;31.33;100630.00;5117148;28;836;-58
2021/03/08 12:26:58;;;;;;;;;;;;;;;20.45;31.17;100638.47;5116878;28;1008;-58
2021/03/08 12:29:24;;;;;;;;;;;;;;;20.40;31.22;100627.50;5116563;28;771;-58
2021/03/08 12:31:49;;;;;;;;;;;;;;;20.47;31.17;100605.88;5120328;27;1281;-58
2021/03/08 12:34:14;;;;;;;;;;;;;;;20.60;31.21;100607.00;5136338;27;889;-58
2021/03/08 12:36:40;;;;;;;;;;;;;;;20.46;31.14;100610.56;5122558;27;869;-57
2021/03/08 12:42:20;;;;;;;;;;;;;;;20.65;30.97;100602.19;5116392;28;1917;-59
2021/03/08 12:44:46;;;;;;;;;;;;;;;20.55;30.74;100598.81;5116208;28;814;-57
2021/03/08 12:47:11;;;;;;;;;;;;;;;20.15;31.64;100594.53;5116793;28;858;-59
2021/03/08 12:49:40;;;;;;;;;;;;;;;20.16;31.56;100589.81;5116658;28;1027;-58
2021/03/08 12:52:06;;;;;;;;;;;;;;;19.96;31.94;100600.09;5115258;28;774;-57
2021/03/08 12:54:31;;;;;;;;;;;;;;;20.24;31.46;100589.13;5116506;28;787;-58
2021/03/08 12:56:57;;;;;;;;;;;;;;;20.49;30.84;100593.38;5116433;28;996;-58
2021/03/08 12:59:22;;;;;;;;;;;;;;;20.44;31.09;100581.59;5116153;28;790;-58
2021/03/08 13:01:48;;;;;;;;;;;;;;;20.66;30.80;100589.19;5116434;28;1975;-56
2021/03/08 13:04:13;;;;;;;;;;;;;;;20.52;30.92;100583.66;5116513;28;770;-52
2021/03/08 13:06:39;;;;;;;;;;;;;;;20.19;31.54;100578.19;5115926;28;798;-56
2021/03/08 13:09:04;;;;;;;;;;;;;;;19.78;32.11;100585.19;5117225;28;1339;-58
2021/03/08 13:11:30;;;;;;;;;;;;;;;19.98;32.05;100580.47;5127203;27;877;-57
2021/03/08 13:13:55;;;;;;;;;;;;;;;20.06;31.94;100574.25;5115992;28;854;-57